TimeCST,TemperatureF,Dew PointF,Humidity,Sea Level PressureIn,VisibilityMPH,Wind Direction,Wind SpeedMPH,Gust SpeedMPH,PrecipitationIn,Events,Conditions,WindDirDegrees,DateUTC
12:52 AM,27.0,19.9,75,30.10,9.0,North,15.0,19.6,0.00,Snow,Light Snow,350,2013-03-01 06:52:00
1:52 AM,26.1,19.9,78,30.10,9.0,NNW,11.5,-,0.00,Snow,Light Snow,340,2013-03-01 07:52:00
2:52 AM,26.1,19.9,78,30.10,9.0,NNW,11.5,-,0.00,Snow,Light Snow,340,2013-03-01 08:52:00
3:52 AM,26.1,19.9,78,30.10,9.0,North,11.5,20.7,0.00,Snow,Light Snow,350,2013-03-01 09:52:00
4:52 AM,26.6,19.4,74,30.08,8.0,North,11.5,-,N/A,Snow,Light Snow,350,2013-03-01 10:52:00
5:52 AM,25.0,19.0,78,30.13,9.0,North,13.8,19.6,0.00,,Overcast,360,2013-03-01 11:52:00
6:52 AM,25.0,19.0,78,30.15,10.0,North,12.7,-,0.00,,Overcast,350,2013-03-01 12:52:00
7:52 AM,25.0,19.9,81,30.16,8.0,North,11.5,-,0.00,Snow,Light Snow,360,2013-03-01 13:52:00
8:52 AM,25.0,19.9,81,30.17,9.0,North,17.3,23.0,0.00,Snow,Light Snow,350,2013-03-01 14:52:00
9:26 AM,24.8,19.4,80,30.14,9.0,North,11.5,-,0.00,,Overcast,350,2013-03-01 15:26:00
9:52 AM,25.0,19.9,81,30.19,10.0,North,16.1,-,0.00,,Overcast,360,2013-03-01 15:52:00
10:52 AM,25.0,19.9,81,30.19,10.0,North,13.8,20.7,N/A,,Overcast,10,2013-03-01 16:52:00
11:52 AM,25.0,19.9,81,30.20,9.0,North,13.8,25.3,N/A,,Overcast,360,2013-03-01 17:52:00
12:52 PM,26.1,21.0,81,30.19,10.0,NNW,17.3,24.2,N/A,,Overcast,340,2013-03-01 18:52:00
1:52 PM,25.0,19.0,78,30.19,10.0,North,15.0,21.9,N/A,,Overcast,350,2013-03-01 19:52:00
2:52 PM,25.0,19.0,78,30.19,10.0,North,18.4,26.5,N/A,,Overcast,360,2013-03-01 20:52:00
3:52 PM,25.0,19.0,78,30.19,10.0,North,12.7,26.5,N/A,,Overcast,350,2013-03-01 21:52:00
4:12 PM,24.8,17.6,74,30.16,10.0,North,15.0,23.0,N/A,,Overcast,350,2013-03-01 22:12:00
4:52 PM,25.0,18.0,75,30.20,10.0,North,13.8,25.3,N/A,,Overcast,360,2013-03-01 22:52:00
5:52 PM,25.0,19.0,78,30.21,10.0,North,15.0,23.0,N/A,,Overcast,350,2013-03-01 23:52:00
6:52 PM,25.0,19.0,78,30.22,10.0,North,13.8,23.0,N/A,,Overcast,350,2013-03-02 00:52:00
7:52 PM,26.1,19.0,75,30.23,10.0,NNW,12.7,-,0.00,Snow,Light Snow,340,2013-03-02 01:52:00
8:52 PM,26.6,17.6,69,30.19,9.0,NNW,13.8,-,N/A,Snow,Light Snow,330,2013-03-02 02:52:00
9:52 PM,25.0,17.1,72,30.23,9.0,NNW,15.0,-,0.00,Snow,Light Snow,330,2013-03-02 03:52:00
10:52 PM,25.0,17.1,72,30.22,9.0,NNW,12.7,-,0.00,Snow,Light Snow,340,2013-03-02 04:52:00
11:52 PM,23.0,16.0,74,30.22,9.0,NNW,16.1,20.7,0.00,Snow,Light Snow,340,2013-03-02 05:52:00